sensor_id;sensor_type;location;lat;lon;timestamp;temperature;humidity
40808;DHT22;26523;52.504;13.498;2023-06-22T00:02:16;20.50;99.90
40808;DHT22;26523;52.504;13.498;2023-06-22T00:04:42;20.40;99.90
40808;DHT22;26523;52.504;13.498;2023-06-22T00:07:08;20.40;99.90
40808;DHT22;26523;52.504;13.498;2023-06-22T00:09:34;20.30;99.90
40808;DHT22;26523;52.504;13.498;2023-06-22T00:11:59;20.20;99.90
40808;DHT22;26523;52.504;13.498;2023-06-22T00:14:25;20.20;99.90
40808;DHT22;26523;52.504;13.498;2023-06-22T00:16:51;20.10;99.90
40808;DHT22;26523;52.504;13.498;2023-06-22T00:19:21;20.10;99.90
40808;DHT22;26523;52.504;13.498;2023-06-22T00:21:47;20.10;99.90
40808;DHT22;26523;52.504;13.498;2023-06-22T00:24:21;20.10;99.90
40808;DHT22;26523;52.504;13.498;2023-06-22T00:26:48;20.00;99.90
40808;DHT22;26523;52.504;13.498;2023-06-22T00:29:13;20.00;99.90
40808;DHT22;26523;52.504;13.498;2023-06-22T00:31:39;20.10;99.90
40808;DHT22;26523;52.504;13.498;2023-06-22T00:34:05;20.10;99.90
40808;DHT22;26523;52.504;13.498;2023-06-22T00:36:32;20.00;99.90
40808;DHT22;26523;52.504;13.498;2023-06-22T00:38:57;20.00;99.90
40808;DHT22;26523;52.504;13.498;2023-06-22T00:41:23;20.00;99.90
40808;DHT22;26523;52.504;13.498;2023-06-22T00:43:49;20.00;99.90
40808;DHT22;26523;52.504;13.498;2023-06-22T00:46:15;19.90;99.90
40808;DHT22;26523;52.504;13.498;2023-06-22T00:48:40;19.90;99.90
40808;DHT22;26523;52.504;13.498;2023-06-22T00:51:09;19.90;99.90
40808;DHT22;26523;52.504;13.498;2023-06-22T00:53:35;19.90;99.90
40808;DHT22;26523;52.504;13.498;2023-06-22T00:56:03;19.90;99.90
40808;DHT22;26523;52.504;13.498;2023-06-22T00:58:29;19.80;99.90
40808;DHT22;26523;52.504;13.498;2023-06-22T01:00:55;19.80;99.90
40808;DHT22;26523;52.504;13.498;2023-06-22T01:03:22;19.80;99.90
40808;DHT22;26523;52.504;13.498;2023-06-22T01:05:48;19.80;99.90
40808;DHT22;26523;52.504;13.498;2023-06-22T01:08:47;19.80;99.90
40808;DHT22;26523;52.504;13.498;2023-06-22T01:11:28;19.80;99.90
40808;DHT22;26523;52.504;13.498;2023-06-22T01:14:00;19.80;99.90
40808;DHT22;26523;52.504;13.498;2023-06-22T01:16:33;19.80;99.90
40808;DHT22;26523;52.504;13.498;2023-06-22T01:19:20;19.70;99.90
40808;DHT22;26523;52.504;13.498;2023-06-22T01:21:51;19.70;99.90
40808;DHT22;26523;52.504;13.498;2023-06-22T01:27:47;19.60;99.90
40808;DHT22;26523;52.504;13.498;2023-06-22T01:30:11;19.50;99.90
40808;DHT22;26523;52.504;13.498;2023-06-22T01:32:40;19.50;99.90
40808;DHT22;26523;52.504;13.498;2023-06-22T01:35:07;19.50;99.90
40808;DHT22;26523;52.504;13.498;2023-06-22T01:37:34;19.50;99.90
40808;DHT22;26523;52.504;13.498;2023-06-22T01:40:02;19.40;99.90
40808;DHT22;26523;52.504;13.498;2023-06-22T01:42:31;19.40;99.90
40808;DHT22;26523;52.504;13.498;2023-06-22T01:44:58;19.40;99.90
40808;DHT22;26523;52.504;13.498;2023-06-22T01:47:25;19.30;99.90
40808;DHT22;26523;52.504;13.498;2023-06-22T01:49:53;19.40;99.90
40808;DHT22;26523;52.504;13.498;2023-06-22T01:52:19;19.30;99.90
40808;DHT22;26523;52.504;13.498;2023-06-22T01:54:46;19.30;99.90
40808;DHT22;26523;52.504;13.498;2023-06-22T01:57:12;19.30;99.90
40808;DHT22;26523;52.504;13.498;2023-06-22T01:59:53;19.40;99.90
40808;DHT22;26523;52.504;13.498;2023-06-22T02:02:24;19.40;99.90
40808;DHT22;26523;52.504;13.498;2023-06-22T02:05:02;19.40;99.90
40808;DHT22;26523;52.504;13.498;2023-06-22T02:07:34;19.30;99.90
40808;DHT22;26523;52.504;13.498;2023-06-22T02:10:03;19.30;99.90
40808;DHT22;26523;52.504;13.498;2023-06-22T02:12:30;19.40;99.90
40808;DHT22;26523;52.504;13.498;2023-06-22T02:14:57;19.30;99.90
40808;DHT22;26523;52.504;13.498;2023-06-22T02:17:25;19.30;99.90
40808;DHT22;26523;52.504;13.498;2023-06-22T02:19:51;19.30;99.90
40808;DHT22;26523;52.504;13.498;2023-06-22T02:22:17;19.30;99.90
40808;DHT22;26523;52.504;13.498;2023-06-22T02:24:43;19.40;99.90
40808;DHT22;26523;52.504;13.498;2023-06-22T02:27:09;19.40;99.90
40808;DHT22;26523;52.504;13.498;2023-06-22T02:29:36;19.40;99.90
40808;DHT22;26523;52.504;13.498;2023-06-22T02:32:02;19.50;99.90
40808;DHT22;26523;52.504;13.498;2023-06-22T02:34:27;19.40;99.90
40808;DHT22;26523;52.504;13.498;2023-06-22T02:36:53;19.50;99.90
40808;DHT22;26523;52.504;13.498;2023-06-22T02:39:23;19.50;99.90
40808;DHT22;26523;52.504;13.498;2023-06-22T02:41:54;19.50;99.90
40808;DHT22;26523;52.504;13.498;2023-06-22T02:44:20;19.50;99.90
40808;DHT22;26523;52.504;13.498;2023-06-22T02:46:47;19.50;99.90
40808;DHT22;26523;52.504;13.498;2023-06-22T02:49:13;19.60;99.90
40808;DHT22;26523;52.504;13.498;2023-06-22T02:51:41;19.60;99.90
40808;DHT22;26523;52.504;13.498;2023-06-22T02:54:07;19.70;99.90
40808;DHT22;26523;52.504;13.498;2023-06-22T02:56:33;19.70;99.90
40808;DHT22;26523;52.504;13.498;2023-06-22T02:58:58;19.70;99.90
40808;DHT22;26523;52.504;13.498;2023-06-22T03:01:27;19.80;99.90
40808;DHT22;26523;52.504;13.498;2023-06-22T03:04:02;19.80;99.90
40808;DHT22;26523;52.504;13.498;2023-06-22T03:06:28;19.80;99.90
40808;DHT22;26523;52.504;13.498;2023-06-22T03:09:00;19.80;99.90
40808;DHT22;26523;52.504;13.498;2023-06-22T03:11:26;19.80;99.90
40808;DHT22;26523;52.504;13.498;2023-06-22T03:13:52;19.80;99.90
40808;DHT22;26523;52.504;13.498;2023-06-22T03:16:18;19.80;99.90
40808;DHT22;26523;52.504;13.498;2023-06-22T03:18:44;19.80;99.90
40808;DHT22;26523;52.504;13.498;2023-06-22T03:21:10;19.80;99.90
40808;DHT22;26523;52.504;13.498;2023-06-22T03:23:36;19.80;99.90
40808;DHT22;26523;52.504;13.498;2023-06-22T03:26:02;19.80;99.90
40808;DHT22;26523;52.504;13.498;2023-06-22T03:28:28;19.80;99.90
40808;DHT22;26523;52.504;13.498;2023-06-22T03:30:53;19.80;99.90
40808;DHT22;26523;52.504;13.498;2023-06-22T03:33:19;19.80;99.90
40808;DHT22;26523;52.504;13.498;2023-06-22T03:35:45;19.80;99.90
40808;DHT22;26523;52.504;13.498;2023-06-22T03:38:10;19.80;99.90
40808;DHT22;26523;52.504;13.498;2023-06-22T03:40:36;19.80;99.90
40808;DHT22;26523;52.504;13.498;2023-06-22T03:43:01;19.80;99.90
40808;DHT22;26523;52.504;13.498;2023-06-22T03:45:27;19.80;99.90
40808;DHT22;26523;52.504;13.498;2023-06-22T03:47:53;19.90;99.90
40808;DHT22;26523;52.504;13.498;2023-06-22T03:50:18;19.90;99.90
40808;DHT22;26523;52.504;13.498;2023-06-22T03:52:46;19.90;99.90
40808;DHT22;26523;52.504;13.498;2023-06-22T03:55:12;20.00;99.90
40808;DHT22;26523;52.504;13.498;2023-06-22T03:57:37;20.00;99.90
40808;DHT22;26523;52.504;13.498;2023-06-22T04:00:04;20.10;99.90
40808;DHT22;26523;52.504;13.498;2023-06-22T04:02:33;20.10;99.90
40808;DHT22;26523;52.504;13.498;2023-06-22T04:04:58;20.10;99.90
40808;DHT22;26523;52.504;13.498;2023-06-22T04:07:24;20.10;99.90
40808;DHT22;26523;52.504;13.498;2023-06-22T04:09:50;20.20;99.90
40808;DHT22;26523;52.504;13.498;2023-06-22T04:12:15;20.20;99.90
40808;DHT22;26523;52.504;13.498;2023-06-22T04:14:41;20.40;99.90
40808;DHT22;26523;52.504;13.498;2023-06-22T04:17:07;20.50;99.90
40808;DHT22;26523;52.504;13.498;2023-06-22T04:19:32;20.50;99.90
40808;DHT22;26523;52.504;13.498;2023-06-22T04:21:58;20.60;99.90
40808;DHT22;26523;52.504;13.498;2023-06-22T04:24:24;20.80;99.90
40808;DHT22;26523;52.504;13.498;2023-06-22T04:26:49;20.90;99.90
40808;DHT22;26523;52.504;13.498;2023-06-22T04:29:19;20.90;99.90
40808;DHT22;26523;52.504;13.498;2023-06-22T04:31:44;21.10;99.90
40808;DHT22;26523;52.504;13.498;2023-06-22T04:34:10;21.10;99.90
40808;DHT22;26523;52.504;13.498;2023-06-22T04:36:40;21.30;99.90
40808;DHT22;26523;52.504;13.498;2023-06-22T04:39:08;21.50;99.90
40808;DHT22;26523;52.504;13.498;2023-06-22T04:41:36;21.60;99.90
40808;DHT22;26523;52.504;13.498;2023-06-22T04:44:15;21.70;99.90
40808;DHT22;26523;52.504;13.498;2023-06-22T04:46:53;21.80;99.90
40808;DHT22;26523;52.504;13.498;2023-06-22T04:49:20;21.90;99.90
40808;DHT22;26523;52.504;13.498;2023-06-22T04:51:47;22.10;99.90
40808;DHT22;26523;52.504;13.498;2023-06-22T04:54:13;22.30;99.90
40808;DHT22;26523;52.504;13.498;2023-06-22T04:56:39;22.50;99.90
40808;DHT22;26523;52.504;13.498;2023-06-22T04:59:06;22.70;99.90
40808;DHT22;26523;52.504;13.498;2023-06-22T05:01:32;22.70;99.90
40808;DHT22;26523;52.504;13.498;2023-06-22T05:03:58;23.00;99.90
40808;DHT22;26523;52.504;13.498;2023-06-22T05:06:26;23.20;99.90
40808;DHT22;26523;52.504;13.498;2023-06-22T05:08:56;23.60;99.90
40808;DHT22;26523;52.504;13.498;2023-06-22T05:11:26;24.60;99.90
40808;DHT22;26523;52.504;13.498;2023-06-22T05:13:52;25.20;99.90
40808;DHT22;26523;52.504;13.498;2023-06-22T05:16:18;26.10;99.90
40808;DHT22;26523;52.504;13.498;2023-06-22T05:18:51;26.70;99.90
40808;DHT22;26523;52.504;13.498;2023-06-22T05:21:17;27.20;99.90
40808;DHT22;26523;52.504;13.498;2023-06-22T05:23:44;27.30;99.90
40808;DHT22;26523;52.504;13.498;2023-06-22T05:26:10;26.80;99.90
40808;DHT22;26523;52.504;13.498;2023-06-22T05:28:35;26.60;99.90
40808;DHT22;26523;52.504;13.498;2023-06-22T05:31:01;26.00;99.90
40808;DHT22;26523;52.504;13.498;2023-06-22T05:33:27;25.90;99.90
40808;DHT22;26523;52.504;13.498;2023-06-22T05:35:52;25.60;99.90
40808;DHT22;26523;52.504;13.498;2023-06-22T05:38:19;25.30;99.90
40808;DHT22;26523;52.504;13.498;2023-06-22T05:40:44;25.10;99.90
40808;DHT22;26523;52.504;13.498;2023-06-22T05:43:10;24.90;99.90
40808;DHT22;26523;52.504;13.498;2023-06-22T05:45:36;24.80;99.90
40808;DHT22;26523;52.504;13.498;2023-06-22T05:48:01;24.90;99.90
40808;DHT22;26523;52.504;13.498;2023-06-22T05:50:27;24.90;99.90
40808;DHT22;26523;52.504;13.498;2023-06-22T05:53:00;24.70;99.90
40808;DHT22;26523;52.504;13.498;2023-06-22T05:55:26;24.90;99.90
40808;DHT22;26523;52.504;13.498;2023-06-22T05:57:51;25.20;99.90
40808;DHT22;26523;52.504;13.498;2023-06-22T06:00:17;25.20;99.90
40808;DHT22;26523;52.504;13.498;2023-06-22T06:02:43;25.50;99.90
40808;DHT22;26523;52.504;13.498;2023-06-22T06:05:12;25.40;99.90
40808;DHT22;26523;52.504;13.498;2023-06-22T06:07:40;25.10;99.90
40808;DHT22;26523;52.504;13.498;2023-06-22T06:10:06;25.00;99.90
40808;DHT22;26523;52.504;13.498;2023-06-22T06:12:32;24.90;99.90
40808;DHT22;26523;52.504;13.498;2023-06-22T06:14:58;24.80;99.90
40808;DHT22;26523;52.504;13.498;2023-06-22T06:17:23;25.00;99.90
40808;DHT22;26523;52.504;13.498;2023-06-22T06:19:49;25.10;99.90
40808;DHT22;26523;52.504;13.498;2023-06-22T06:22:14;26.10;99.90
40808;DHT22;26523;52.504;13.498;2023-06-22T06:24:40;27.10;99.90
40808;DHT22;26523;52.504;13.498;2023-06-22T06:27:06;27.40;99.10
40808;DHT22;26523;52.504;13.498;2023-06-22T06:29:34;27.50;99.30
40808;DHT22;26523;52.504;13.498;2023-06-22T06:32:00;27.80;99.10
40808;DHT22;26523;52.504;13.498;2023-06-22T06:34:26;29.10;98.30
40808;DHT22;26523;52.504;13.498;2023-06-22T06:36:51;30.40;96.00
40808;DHT22;26523;52.504;13.498;2023-06-22T06:39:17;31.40;93.90
40808;DHT22;26523;52.504;13.498;2023-06-22T06:41:43;31.20;93.20
40808;DHT22;26523;52.504;13.498;2023-06-22T06:44:08;31.50;92.10
40808;DHT22;26523;52.504;13.498;2023-06-22T06:46:34;32.00;91.20
40808;DHT22;26523;52.504;13.498;2023-06-22T06:49:00;33.40;90.00
40808;DHT22;26523;52.504;13.498;2023-06-22T06:51:25;34.70;87.60
40808;DHT22;26523;52.504;13.498;2023-06-22T06:53:51;35.40;82.90
40808;DHT22;26523;52.504;13.498;2023-06-22T06:56:16;34.20;80.90
40808;DHT22;26523;52.504;13.498;2023-06-22T06:58:42;34.20;79.80
40808;DHT22;26523;52.504;13.498;2023-06-22T07:01:08;34.90;78.80
40808;DHT22;26523;52.504;13.498;2023-06-22T07:03:34;34.80;78.40
40808;DHT22;26523;52.504;13.498;2023-06-22T07:06:00;35.50;78.20
40808;DHT22;26523;52.504;13.498;2023-06-22T07:08:26;36.10;76.20
40808;DHT22;26523;52.504;13.498;2023-06-22T07:10:52;36.60;74.90
40808;DHT22;26523;52.504;13.498;2023-06-22T07:13:18;35.90;73.20
40808;DHT22;26523;52.504;13.498;2023-06-22T07:15:43;34.20;75.00
40808;DHT22;26523;52.504;13.498;2023-06-22T07:18:09;32.20;78.40
40808;DHT22;26523;52.504;13.498;2023-06-22T07:20:35;31.00;81.00
40808;DHT22;26523;52.504;13.498;2023-06-22T07:23:00;30.20;82.30
40808;DHT22;26523;52.504;13.498;2023-06-22T07:25:26;30.70;82.00
40808;DHT22;26523;52.504;13.498;2023-06-22T07:28:02;32.20;79.30
40808;DHT22;26523;52.504;13.498;2023-06-22T07:30:28;33.90;75.60
40808;DHT22;26523;52.504;13.498;2023-06-22T07:32:55;34.80;74.50
40808;DHT22;26523;52.504;13.498;2023-06-22T07:35:20;35.50;72.80
40808;DHT22;26523;52.504;13.498;2023-06-22T07:37:46;35.80;71.30
40808;DHT22;26523;52.504;13.498;2023-06-22T07:40:12;35.30;71.50
40808;DHT22;26523;52.504;13.498;2023-06-22T07:42:38;34.90;72.20
40808;DHT22;26523;52.504;13.498;2023-06-22T07:45:04;34.50;70.80
40808;DHT22;26523;52.504;13.498;2023-06-22T07:47:30;33.90;71.40
40808;DHT22;26523;52.504;13.498;2023-06-22T07:49:59;32.50;73.10
40808;DHT22;26523;52.504;13.498;2023-06-22T07:52:27;31.80;73.70
40808;DHT22;26523;52.504;13.498;2023-06-22T07:54:52;31.60;74.20
40808;DHT22;26523;52.504;13.498;2023-06-22T07:57:19;31.70;75.10
40808;DHT22;26523;52.504;13.498;2023-06-22T07:59:44;31.80;75.30
40808;DHT22;26523;52.504;13.498;2023-06-22T08:02:11;32.70;74.50
40808;DHT22;26523;52.504;13.498;2023-06-22T08:04:36;32.40;71.80
40808;DHT22;26523;52.504;13.498;2023-06-22T08:07:02;32.00;72.20
40808;DHT22;26523;52.504;13.498;2023-06-22T08:09:30;31.40;73.30
40808;DHT22;26523;52.504;13.498;2023-06-22T08:11:56;30.80;73.80
40808;DHT22;26523;52.504;13.498;2023-06-22T08:14:26;30.10;75.60
40808;DHT22;26523;52.504;13.498;2023-06-22T08:16:51;29.80;75.60
40808;DHT22;26523;52.504;13.498;2023-06-22T08:19:17;29.10;75.90
40808;DHT22;26523;52.504;13.498;2023-06-22T08:21:43;28.70;77.70
40808;DHT22;26523;52.504;13.498;2023-06-22T08:24:09;28.40;78.90
40808;DHT22;26523;52.504;13.498;2023-06-22T08:26:35;28.70;78.60
40808;DHT22;26523;52.504;13.498;2023-06-22T08:29:03;28.80;79.40
40808;DHT22;26523;52.504;13.498;2023-06-22T08:31:29;29.00;79.40
40808;DHT22;26523;52.504;13.498;2023-06-22T08:33:55;28.90;79.70
40808;DHT22;26523;52.504;13.498;2023-06-22T08:36:21;28.70;81.10
40808;DHT22;26523;52.504;13.498;2023-06-22T08:38:47;28.50;81.40
40808;DHT22;26523;52.504;13.498;2023-06-22T08:41:16;28.40;81.30
40808;DHT22;26523;52.504;13.498;2023-06-22T08:43:43;28.50;80.90
40808;DHT22;26523;52.504;13.498;2023-06-22T08:46:09;28.20;80.70
40808;DHT22;26523;52.504;13.498;2023-06-22T08:48:36;28.40;81.00
40808;DHT22;26523;52.504;13.498;2023-06-22T08:51:01;28.70;80.90
40808;DHT22;26523;52.504;13.498;2023-06-22T08:53:27;28.80;80.50
40808;DHT22;26523;52.504;13.498;2023-06-22T08:55:53;28.80;80.90
40808;DHT22;26523;52.504;13.498;2023-06-22T08:58:19;28.80;80.90
40808;DHT22;26523;52.504;13.498;2023-06-22T09:00:47;29.00;80.80
40808;DHT22;26523;52.504;13.498;2023-06-22T09:03:13;29.10;80.50
40808;DHT22;26523;52.504;13.498;2023-06-22T09:05:38;28.90;79.70
40808;DHT22;26523;52.504;13.498;2023-06-22T09:08:04;29.00;79.80
40808;DHT22;26523;52.504;13.498;2023-06-22T09:10:30;29.60;79.20
40808;DHT22;26523;52.504;13.498;2023-06-22T09:12:57;30.60;77.10
40808;DHT22;26523;52.504;13.498;2023-06-22T09:15:22;31.60;75.10
40808;DHT22;26523;52.504;13.498;2023-06-22T09:17:48;32.20;73.20
40808;DHT22;26523;52.504;13.498;2023-06-22T09:20:14;32.70;73.30
40808;DHT22;26523;52.504;13.498;2023-06-22T09:22:41;32.80;72.30
40808;DHT22;26523;52.504;13.498;2023-06-22T09:25:06;32.90;72.00
40808;DHT22;26523;52.504;13.498;2023-06-22T09:27:33;32.20;72.80
40808;DHT22;26523;52.504;13.498;2023-06-22T09:29:58;31.80;73.90
40808;DHT22;26523;52.504;13.498;2023-06-22T09:32:24;31.50;73.80
40808;DHT22;26523;52.504;13.498;2023-06-22T09:34:51;31.80;75.20
40808;DHT22;26523;52.504;13.498;2023-06-22T09:37:16;31.30;73.50
40808;DHT22;26523;52.504;13.498;2023-06-22T09:39:42;31.00;75.00
40808;DHT22;26523;52.504;13.498;2023-06-22T09:42:08;30.50;74.80
40808;DHT22;26523;52.504;13.498;2023-06-22T09:44:34;29.70;75.80
40808;DHT22;26523;52.504;13.498;2023-06-22T09:47:00;29.70;76.90
40808;DHT22;26523;52.504;13.498;2023-06-22T09:49:25;30.00;74.80
40808;DHT22;26523;52.504;13.498;2023-06-22T09:51:52;30.50;75.20
40808;DHT22;26523;52.504;13.498;2023-06-22T09:54:18;30.30;74.90
40808;DHT22;26523;52.504;13.498;2023-06-22T09:56:43;30.10;74.40
40808;DHT22;26523;52.504;13.498;2023-06-22T09:59:09;30.00;74.20
40808;DHT22;26523;52.504;13.498;2023-06-22T10:01:35;29.50;75.30
40808;DHT22;26523;52.504;13.498;2023-06-22T10:04:02;29.30;76.10
40808;DHT22;26523;52.504;13.498;2023-06-22T10:06:27;29.10;77.30
40808;DHT22;26523;52.504;13.498;2023-06-22T10:08:53;29.30;79.00
40808;DHT22;26523;52.504;13.498;2023-06-22T10:11:19;29.60;78.00
40808;DHT22;26523;52.504;13.498;2023-06-22T10:13:44;29.90;77.70
40808;DHT22;26523;52.504;13.498;2023-06-22T10:16:10;30.30;77.80
40808;DHT22;26523;52.504;13.498;2023-06-22T10:18:36;30.70;77.80
40808;DHT22;26523;52.504;13.498;2023-06-22T10:21:02;30.70;76.10
40808;DHT22;26523;52.504;13.498;2023-06-22T10:23:27;30.80;76.40
40808;DHT22;26523;52.504;13.498;2023-06-22T10:25:53;30.50;75.20
40808;DHT22;26523;52.504;13.498;2023-06-22T10:28:19;30.20;75.90
40808;DHT22;26523;52.504;13.498;2023-06-22T10:30:44;29.90;76.90
40808;DHT22;26523;52.504;13.498;2023-06-22T10:33:11;29.60;76.90
40808;DHT22;26523;52.504;13.498;2023-06-22T10:35:37;29.40;76.40
40808;DHT22;26523;52.504;13.498;2023-06-22T10:38:03;29.70;77.50
40808;DHT22;26523;52.504;13.498;2023-06-22T10:40:29;30.20;78.80
40808;DHT22;26523;52.504;13.498;2023-06-22T10:42:55;30.20;77.10
40808;DHT22;26523;52.504;13.498;2023-06-22T10:45:20;29.70;76.60
40808;DHT22;26523;52.504;13.498;2023-06-22T10:47:46;29.30;76.40
40808;DHT22;26523;52.504;13.498;2023-06-22T10:50:12;29.30;78.60
40808;DHT22;26523;52.504;13.498;2023-06-22T10:52:38;29.30;77.40
40808;DHT22;26523;52.504;13.498;2023-06-22T10:55:05;29.00;78.30
40808;DHT22;26523;52.504;13.498;2023-06-22T10:57:31;29.10;78.40
40808;DHT22;26523;52.504;13.498;2023-06-22T10:59:56;28.60;77.50
40808;DHT22;26523;52.504;13.498;2023-06-22T11:02:23;28.80;79.40
40808;DHT22;26523;52.504;13.498;2023-06-22T11:04:48;28.90;78.60
40808;DHT22;26523;52.504;13.498;2023-06-22T11:07:15;29.00;78.10
40808;DHT22;26523;52.504;13.498;2023-06-22T11:09:43;28.80;77.90
40808;DHT22;26523;52.504;13.498;2023-06-22T11:12:08;28.70;77.60
40808;DHT22;26523;52.504;13.498;2023-06-22T11:14:34;28.50;78.80
40808;DHT22;26523;52.504;13.498;2023-06-22T11:17:00;28.50;78.70
40808;DHT22;26523;52.504;13.498;2023-06-22T11:19:25;28.30;77.90
40808;DHT22;26523;52.504;13.498;2023-06-22T11:21:51;28.10;78.40
40808;DHT22;26523;52.504;13.498;2023-06-22T11:24:17;28.20;78.80
40808;DHT22;26523;52.504;13.498;2023-06-22T11:26:43;28.40;78.90
40808;DHT22;26523;52.504;13.498;2023-06-22T11:29:09;28.50;77.70
40808;DHT22;26523;52.504;13.498;2023-06-22T11:31:35;28.40;77.40
40808;DHT22;26523;52.504;13.498;2023-06-22T11:34:01;28.40;78.30
40808;DHT22;26523;52.504;13.498;2023-06-22T11:36:27;28.50;78.00
40808;DHT22;26523;52.504;13.498;2023-06-22T11:38:54;28.40;77.20
40808;DHT22;26523;52.504;13.498;2023-06-22T11:41:20;28.60;77.50
40808;DHT22;26523;52.504;13.498;2023-06-22T11:43:47;28.40;77.10
40808;DHT22;26523;52.504;13.498;2023-06-22T11:46:12;28.40;77.20
40808;DHT22;26523;52.504;13.498;2023-06-22T11:48:38;28.20;77.60
40808;DHT22;26523;52.504;13.498;2023-06-22T11:51:04;28.10;78.00
40808;DHT22;26523;52.504;13.498;2023-06-22T11:53:31;27.80;77.90
40808;DHT22;26523;52.504;13.498;2023-06-22T11:55:57;28.00;78.40
40808;DHT22;26523;52.504;13.498;2023-06-22T11:58:23;27.90;77.70
40808;DHT22;26523;52.504;13.498;2023-06-22T12:00:48;27.90;77.60
40808;DHT22;26523;52.504;13.498;2023-06-22T12:03:15;28.00;77.20
40808;DHT22;26523;52.504;13.498;2023-06-22T12:05:42;28.00;77.50
40808;DHT22;26523;52.504;13.498;2023-06-22T12:08:07;28.10;77.70
40808;DHT22;26523;52.504;13.498;2023-06-22T12:10:33;28.30;77.70
40808;DHT22;26523;52.504;13.498;2023-06-22T12:12:59;28.60;77.40
40808;DHT22;26523;52.504;13.498;2023-06-22T12:15:26;28.90;76.70
40808;DHT22;26523;52.504;13.498;2023-06-22T12:17:52;28.90;75.90
40808;DHT22;26523;52.504;13.498;2023-06-22T12:20:17;28.80;76.80
40808;DHT22;26523;52.504;13.498;2023-06-22T12:22:44;28.90;76.20
40808;DHT22;26523;52.504;13.498;2023-06-22T12:25:09;29.20;77.00
40808;DHT22;26523;52.504;13.498;2023-06-22T12:27:36;29.30;75.10
40808;DHT22;26523;52.504;13.498;2023-06-22T12:30:02;29.00;77.70
40808;DHT22;26523;52.504;13.498;2023-06-22T12:32:28;28.70;77.70
40808;DHT22;26523;52.504;13.498;2023-06-22T12:34:54;28.50;77.10
40808;DHT22;26523;52.504;13.498;2023-06-22T12:37:20;28.10;78.10
40808;DHT22;26523;52.504;13.498;2023-06-22T12:39:46;28.00;79.90
40808;DHT22;26523;52.504;13.498;2023-06-22T12:42:11;27.90;78.60
40808;DHT22;26523;52.504;13.498;2023-06-22T12:44:38;28.00;80.70
40808;DHT22;26523;52.504;13.498;2023-06-22T12:47:05;28.10;82.40
40808;DHT22;26523;52.504;13.498;2023-06-22T12:49:30;28.10;78.50
40808;DHT22;26523;52.504;13.498;2023-06-22T12:51:56;28.10;80.30
40808;DHT22;26523;52.504;13.498;2023-06-22T12:54:22;28.10;80.40
40808;DHT22;26523;52.504;13.498;2023-06-22T12:56:47;28.00;80.00
40808;DHT22;26523;52.504;13.498;2023-06-22T12:59:13;27.80;79.70
40808;DHT22;26523;52.504;13.498;2023-06-22T13:01:39;27.90;80.20
40808;DHT22;26523;52.504;13.498;2023-06-22T13:04:04;28.00;82.60
40808;DHT22;26523;52.504;13.498;2023-06-22T13:06:30;28.00;80.20
40808;DHT22;26523;52.504;13.498;2023-06-22T13:08:56;28.10;79.70
40808;DHT22;26523;52.504;13.498;2023-06-22T13:11:21;28.30;80.70
40808;DHT22;26523;52.504;13.498;2023-06-22T13:13:47;28.30;80.90
40808;DHT22;26523;52.504;13.498;2023-06-22T13:16:13;28.40;81.20
40808;DHT22;26523;52.504;13.498;2023-06-22T13:18:39;28.50;79.70
40808;DHT22;26523;52.504;13.498;2023-06-22T13:21:05;28.40;80.20
40808;DHT22;26523;52.504;13.498;2023-06-22T13:23:30;28.40;79.80
40808;DHT22;26523;52.504;13.498;2023-06-22T13:25:57;28.40;80.90
40808;DHT22;26523;52.504;13.498;2023-06-22T13:28:22;28.50;80.70
40808;DHT22;26523;52.504;13.498;2023-06-22T13:30:48;28.40;80.30
40808;DHT22;26523;52.504;13.498;2023-06-22T13:33:14;28.10;79.70
40808;DHT22;26523;52.504;13.498;2023-06-22T13:35:40;28.00;79.70
40808;DHT22;26523;52.504;13.498;2023-06-22T13:38:10;27.80;81.40
40808;DHT22;26523;52.504;13.498;2023-06-22T13:40:37;27.90;81.50
40808;DHT22;26523;52.504;13.498;2023-06-22T13:43:06;27.70;82.10
40808;DHT22;26523;52.504;13.498;2023-06-22T13:45:32;27.70;81.10
40808;DHT22;26523;52.504;13.498;2023-06-22T13:47:58;27.90;81.80
40808;DHT22;26523;52.504;13.498;2023-06-22T13:50:23;27.80;81.60
40808;DHT22;26523;52.504;13.498;2023-06-22T13:52:49;27.70;82.30
40808;DHT22;26523;52.504;13.498;2023-06-22T13:55:15;27.90;83.00
40808;DHT22;26523;52.504;13.498;2023-06-22T13:57:41;27.90;81.80
40808;DHT22;26523;52.504;13.498;2023-06-22T14:00:07;28.00;81.10
40808;DHT22;26523;52.504;13.498;2023-06-22T14:02:38;27.80;81.10
40808;DHT22;26523;52.504;13.498;2023-06-22T14:05:05;27.80;81.20
40808;DHT22;26523;52.504;13.498;2023-06-22T14:07:31;27.60;81.40
40808;DHT22;26523;52.504;13.498;2023-06-22T14:09:57;27.50;81.60
40808;DHT22;26523;52.504;13.498;2023-06-22T14:12:23;27.60;81.00
40808;DHT22;26523;52.504;13.498;2023-06-22T14:14:48;27.70;82.00
40808;DHT22;26523;52.504;13.498;2023-06-22T14:17:14;27.80;82.10
40808;DHT22;26523;52.504;13.498;2023-06-22T14:19:40;27.70;82.40
40808;DHT22;26523;52.504;13.498;2023-06-22T14:22:05;27.80;80.50
40808;DHT22;26523;52.504;13.498;2023-06-22T14:24:31;27.70;81.70
40808;DHT22;26523;52.504;13.498;2023-06-22T14:26:57;27.70;81.10
40808;DHT22;26523;52.504;13.498;2023-06-22T14:29:23;27.70;82.00
40808;DHT22;26523;52.504;13.498;2023-06-22T14:31:49;27.80;81.40
40808;DHT22;26523;52.504;13.498;2023-06-22T14:34:15;27.80;81.90
40808;DHT22;26523;52.504;13.498;2023-06-22T14:36:42;27.70;81.80
40808;DHT22;26523;52.504;13.498;2023-06-22T14:39:08;27.80;81.50
40808;DHT22;26523;52.504;13.498;2023-06-22T14:41:34;27.80;81.60
40808;DHT22;26523;52.504;13.498;2023-06-22T14:44:00;27.80;82.60
40808;DHT22;26523;52.504;13.498;2023-06-22T14:46:26;27.90;80.90
40808;DHT22;26523;52.504;13.498;2023-06-22T14:48:52;27.90;81.50
40808;DHT22;26523;52.504;13.498;2023-06-22T14:51:18;27.90;80.80
40808;DHT22;26523;52.504;13.498;2023-06-22T14:53:44;27.90;80.90
40808;DHT22;26523;52.504;13.498;2023-06-22T14:56:10;27.90;80.30
40808;DHT22;26523;52.504;13.498;2023-06-22T14:58:35;27.90;80.40
40808;DHT22;26523;52.504;13.498;2023-06-22T15:01:02;27.90;81.80
40808;DHT22;26523;52.504;13.498;2023-06-22T15:03:29;27.80;81.30
40808;DHT22;26523;52.504;13.498;2023-06-22T15:05:56;27.80;81.40
40808;DHT22;26523;52.504;13.498;2023-06-22T15:08:22;27.80;81.00
40808;DHT22;26523;52.504;13.498;2023-06-22T15:10:48;27.80;81.30
40808;DHT22;26523;52.504;13.498;2023-06-22T15:13:13;27.70;81.50
40808;DHT22;26523;52.504;13.498;2023-06-22T15:15:39;27.80;82.20